William P Hobby Airport
KHOU : rendu visible

Aérodrome :











RETROUVEZ-NOUS SUR...

 
LOGIN :

S'inscrire | Disclaimer

   EN    FR    IT 

 









Légende :    VFR   VFR Marginal   IFR   IFR Intensif   IFR Très Intensif
Visi : 
Plafond : 
>= 8 km
>= 3000ft
5 à 8 km
1000 à 3000 ft
1500m à 5 km
500 à 1000 ft
800 à 1500m
200 à 500 ft
< 800m
< 200 ft
Symboles :   Orages  Brouillard  Fortes neiges  Fortes précipitations  Vent > 20 kt






- Altitude de l'aérodrome : 46 ft
- Code IATA : HOU


KHOU - William P Hobby

DERNIER METAR :
  • 040253Z 36008KT 8SM -RA FEW025 FEW095 OVC110 22/20 A2998 RMK AO2 TSE26 SLP156 P0005 60018 T02220200 51029

METARs EXPIRÉS :
  • 040226Z 04006KT 8SM -RA FEW027 FEW095 OVC120 22/20 A2997 RMK AO2 TSE26 P0003 T02220200
  • 040153Z 10005KT 9SM -TSRA FEW035CB SCT090 OVC120 22/20 A2996 RMK AO2 LTG DSNT W AND NW TSB38 SLP150 OCNL LTGIC W-N TS W-N MOV E P0012 T02220200
  • 040138Z 12004KT 8SM -TSRA FEW035 SCT090 OVC120 22/20 A2996 RMK AO2 LTG DSNT W TSB38 OCNL LTGIC W-N TS W-N MOV E P0010 T02220200
  • 040053Z 10006KT 10SM -RA FEW027 SCT090 OVC110 23/20 A2994 RMK AO2 SLP141 P0001 T02280200

TAF KHOU
Valide du 04 à 00h jusqu'au 05 à 00h UTC


032338Z 0400/0424 12011KT P6SM VCTS BKN025CB OVC060
TEMPO 0401/0404 VRB10G20KT 4SM TSRA BR BKN015CB
FM040400 02006KT P6SM VCSH SCT015 OVC025
FM040600 01010KT P6SM VCSH OVC010
FM041600 01009KT 6SM -RA BR VCSH OVC008
FM042100 02008KT 5SM RA OVC012



MET'MAP, la Météo Aéronautique d'un coup d'oeil ! - Copyright ORBIFLY Décembre 2007 - Disclaimer

ORBIFLY MET'MAP TEAM :

Programmation & Développement : Alexandra Zaïnal
Sur une idée originale de : Baudouin d'Aumeries
Assistance à la programmation : Marc-Olivier Méhu
Soutien technique & logistique : Manuel Goepfert

Contact : metmap@orbifly.com




SOURCES & CREDITS :

   NOAA       Earth
Advisory